sensor_id;sensor_type;location;lat;lon;timestamp;temperature;humidity
80132;SHT30;69442;51.442;10.564;2024-02-28T00:01:13;5.49;73.76
80132;SHT30;69442;51.442;10.564;2024-02-28T00:03:38;5.50;73.66
80132;SHT30;69442;51.442;10.564;2024-02-28T00:06:04;5.46;73.70
80132;SHT30;69442;51.442;10.564;2024-02-28T00:08:29;5.50;73.67
80132;SHT30;69442;51.442;10.564;2024-02-28T00:10:54;5.48;73.68
80132;SHT30;69442;51.442;10.564;2024-02-28T00:13:20;5.48;73.76
80132;SHT30;69442;51.442;10.564;2024-02-28T00:15:47;5.50;73.85
80132;SHT30;69442;51.442;10.564;2024-02-28T00:18:13;5.50;73.76
80132;SHT30;69442;51.442;10.564;2024-02-28T00:20:38;5.49;73.74
80132;SHT30;69442;51.442;10.564;2024-02-28T00:23:03;5.50;73.77
80132;SHT30;69442;51.442;10.564;2024-02-28T00:25:29;5.49;73.66
80132;SHT30;69442;51.442;10.564;2024-02-28T00:27:54;5.50;74.09
80132;SHT30;69442;51.442;10.564;2024-02-28T00:30:20;5.52;73.73
80132;SHT30;69442;51.442;10.564;2024-02-28T00:32:45;5.50;73.77
80132;SHT30;69442;51.442;10.564;2024-02-28T00:35:10;5.48;73.89
80132;SHT30;69442;51.442;10.564;2024-02-28T00:37:36;5.49;73.79
80132;SHT30;69442;51.442;10.564;2024-02-28T00:40:01;5.49;73.89
80132;SHT30;69442;51.442;10.564;2024-02-28T00:42:26;5.45;73.83
80132;SHT30;69442;51.442;10.564;2024-02-28T00:44:52;5.45;73.86
80132;SHT30;69442;51.442;10.564;2024-02-28T00:47:17;5.42;73.84
80132;SHT30;69442;51.442;10.564;2024-02-28T00:49:43;5.43;74.03
80132;SHT30;69442;51.442;10.564;2024-02-28T00:52:08;5.38;74.00
80132;SHT30;69442;51.442;10.564;2024-02-28T00:54:33;5.38;74.04
80132;SHT30;69442;51.442;10.564;2024-02-28T00:56:59;5.36;73.99
80132;SHT30;69442;51.442;10.564;2024-02-28T00:59:25;5.38;74.11
80132;SHT30;69442;51.442;10.564;2024-02-28T01:01:50;5.36;74.18
80132;SHT30;69442;51.442;10.564;2024-02-28T01:04:16;5.35;74.11
80132;SHT30;69442;51.442;10.564;2024-02-28T01:06:42;5.34;74.05
80132;SHT30;69442;51.442;10.564;2024-02-28T01:09:07;5.35;74.17
80132;SHT30;69442;51.442;10.564;2024-02-28T01:11:33;5.32;74.09
80132;SHT30;69442;51.442;10.564;2024-02-28T01:13:58;5.34;73.81
80132;SHT30;69442;51.442;10.564;2024-02-28T01:16:23;5.34;73.88
80132;SHT30;69442;51.442;10.564;2024-02-28T01:18:50;5.35;74.12
80132;SHT30;69442;51.442;10.564;2024-02-28T01:21:16;5.32;73.83
80132;SHT30;69442;51.442;10.564;2024-02-28T01:23:41;5.29;73.70
80132;SHT30;69442;51.442;10.564;2024-02-28T01:26:07;5.28;73.71
80132;SHT30;69442;51.442;10.564;2024-02-28T01:28:32;5.27;73.81
80132;SHT30;69442;51.442;10.564;2024-02-28T01:30:57;5.27;73.88
80132;SHT30;69442;51.442;10.564;2024-02-28T01:33:23;5.24;74.24
80132;SHT30;69442;51.442;10.564;2024-02-28T01:35:48;5.27;74.35
80132;SHT30;69442;51.442;10.564;2024-02-28T01:38:14;5.25;74.20
80132;SHT30;69442;51.442;10.564;2024-02-28T01:40:46;5.25;74.57
80132;SHT30;69442;51.442;10.564;2024-02-28T01:43:12;5.25;74.46
80132;SHT30;69442;51.442;10.564;2024-02-28T01:45:38;5.25;74.16
80132;SHT30;69442;51.442;10.564;2024-02-28T01:48:04;5.21;74.06
80132;SHT30;69442;51.442;10.564;2024-02-28T01:50:32;5.18;74.29
80132;SHT30;69442;51.442;10.564;2024-02-28T01:52:58;5.18;74.36
80132;SHT30;69442;51.442;10.564;2024-02-28T01:55:23;5.17;74.31
80132;SHT30;69442;51.442;10.564;2024-02-28T01:57:49;5.14;74.42
80132;SHT30;69442;51.442;10.564;2024-02-28T02:00:15;5.17;74.70
80132;SHT30;69442;51.442;10.564;2024-02-28T02:02:41;5.14;74.40
80132;SHT30;69442;51.442;10.564;2024-02-28T02:05:08;5.10;74.57
80132;SHT30;69442;51.442;10.564;2024-02-28T02:07:34;5.14;74.44
80132;SHT30;69442;51.442;10.564;2024-02-28T02:10:00;5.12;74.48
80132;SHT30;69442;51.442;10.564;2024-02-28T02:12:26;5.12;74.63
80132;SHT30;69442;51.442;10.564;2024-02-28T02:14:52;5.12;74.79
80132;SHT30;69442;51.442;10.564;2024-02-28T02:17:17;5.14;74.50
80132;SHT30;69442;51.442;10.564;2024-02-28T02:19:42;5.10;74.36
80132;SHT30;69442;51.442;10.564;2024-02-28T02:22:08;5.08;74.45
80132;SHT30;69442;51.442;10.564;2024-02-28T02:24:35;5.11;74.28
80132;SHT30;69442;51.442;10.564;2024-02-28T02:27:02;5.10;74.63
80132;SHT30;69442;51.442;10.564;2024-02-28T02:29:30;5.10;74.43
80132;SHT30;69442;51.442;10.564;2024-02-28T02:31:55;5.08;74.33
80132;SHT30;69442;51.442;10.564;2024-02-28T02:34:21;5.05;74.49
80132;SHT30;69442;51.442;10.564;2024-02-28T02:36:46;5.05;74.40
80132;SHT30;69442;51.442;10.564;2024-02-28T02:39:11;5.08;74.28
80132;SHT30;69442;51.442;10.564;2024-02-28T02:41:37;5.07;74.67
80132;SHT30;69442;51.442;10.564;2024-02-28T02:44:02;5.08;74.51
80132;SHT30;69442;51.442;10.564;2024-02-28T02:46:28;5.07;74.16
80132;SHT30;69442;51.442;10.564;2024-02-28T02:48:53;5.07;74.36
80132;SHT30;69442;51.442;10.564;2024-02-28T02:51:19;5.10;74.70
80132;SHT30;69442;51.442;10.564;2024-02-28T02:53:44;5.11;74.44
80132;SHT30;69442;51.442;10.564;2024-02-28T02:56:10;5.12;74.39
80132;SHT30;69442;51.442;10.564;2024-02-28T02:58:35;5.08;73.98
80132;SHT30;69442;51.442;10.564;2024-02-28T03:01:01;5.05;74.05
80132;SHT30;69442;51.442;10.564;2024-02-28T03:03:26;5.05;74.04
80132;SHT30;69442;51.442;10.564;2024-02-28T03:05:51;5.05;74.02
80132;SHT30;69442;51.442;10.564;2024-02-28T03:08:17;5.03;74.31
80132;SHT30;69442;51.442;10.564;2024-02-28T03:10:42;5.00;74.42
80132;SHT30;69442;51.442;10.564;2024-02-28T03:13:08;5.08;74.72
80132;SHT30;69442;51.442;10.564;2024-02-28T03:15:33;5.05;73.85
80132;SHT30;69442;51.442;10.564;2024-02-28T03:17:59;5.04;74.16
80132;SHT30;69442;51.442;10.564;2024-02-28T03:20:24;5.08;74.91
80132;SHT30;69442;51.442;10.564;2024-02-28T03:22:50;5.07;74.04
80132;SHT30;69442;51.442;10.564;2024-02-28T03:25:16;5.01;73.31
80132;SHT30;69442;51.442;10.564;2024-02-28T03:27:41;4.98;73.72
80132;SHT30;69442;51.442;10.564;2024-02-28T03:30:07;4.94;74.02
80132;SHT30;69442;51.442;10.564;2024-02-28T03:32:32;4.90;73.20
80132;SHT30;69442;51.442;10.564;2024-02-28T03:35:13;4.84;73.76
80132;SHT30;69442;51.442;10.564;2024-02-28T03:37:38;4.81;73.33
80132;SHT30;69442;51.442;10.564;2024-02-28T03:40:04;4.76;73.26
80132;SHT30;69442;51.442;10.564;2024-02-28T03:42:47;4.70;73.36
80132;SHT30;69442;51.442;10.564;2024-02-28T03:45:12;4.63;73.30
80132;SHT30;69442;51.442;10.564;2024-02-28T03:47:38;4.66;73.60
80132;SHT30;69442;51.442;10.564;2024-02-28T03:50:03;4.60;73.51
80132;SHT30;69442;51.442;10.564;2024-02-28T03:52:29;4.69;74.92
80132;SHT30;69442;51.442;10.564;2024-02-28T03:54:56;4.65;74.10
80132;SHT30;69442;51.442;10.564;2024-02-28T03:57:22;4.72;73.73
80132;SHT30;69442;51.442;10.564;2024-02-28T03:59:47;4.65;73.48
80132;SHT30;69442;51.442;10.564;2024-02-28T04:02:12;4.59;73.24
80132;SHT30;69442;51.442;10.564;2024-02-28T04:04:38;4.51;73.33
80132;SHT30;69442;51.442;10.564;2024-02-28T04:07:03;4.46;73.01
80132;SHT30;69442;51.442;10.564;2024-02-28T04:09:29;4.42;73.07
80132;SHT30;69442;51.442;10.564;2024-02-28T04:11:54;4.38;73.25
80132;SHT30;69442;51.442;10.564;2024-02-28T04:14:19;4.32;73.39
80132;SHT30;69442;51.442;10.564;2024-02-28T04:16:45;4.25;73.57
80132;SHT30;69442;51.442;10.564;2024-02-28T04:19:11;4.27;73.73
80132;SHT30;69442;51.442;10.564;2024-02-28T04:21:36;4.32;74.67
80132;SHT30;69442;51.442;10.564;2024-02-28T04:24:04;4.38;74.24
80132;SHT30;69442;51.442;10.564;2024-02-28T04:26:30;4.34;73.25
80132;SHT30;69442;51.442;10.564;2024-02-28T04:28:55;4.31;73.35
80132;SHT30;69442;51.442;10.564;2024-02-28T04:31:21;4.27;73.08
80132;SHT30;69442;51.442;10.564;2024-02-28T04:33:47;4.24;73.12
80132;SHT30;69442;51.442;10.564;2024-02-28T04:36:12;4.17;73.45
80132;SHT30;69442;51.442;10.564;2024-02-28T04:38:38;4.18;73.51
80132;SHT30;69442;51.442;10.564;2024-02-28T04:41:03;4.13;73.51
80132;SHT30;69442;51.442;10.564;2024-02-28T04:43:28;4.13;73.35
80132;SHT30;69442;51.442;10.564;2024-02-28T04:45:54;4.10;73.41
80132;SHT30;69442;51.442;10.564;2024-02-28T04:48:19;4.07;73.67
80132;SHT30;69442;51.442;10.564;2024-02-28T04:50:44;4.03;73.55
80132;SHT30;69442;51.442;10.564;2024-02-28T04:53:10;4.06;73.61
80132;SHT30;69442;51.442;10.564;2024-02-28T04:55:35;4.04;73.24
80132;SHT30;69442;51.442;10.564;2024-02-28T04:58:01;4.03;73.52
80132;SHT30;69442;51.442;10.564;2024-02-28T05:00:26;3.97;73.54
80132;SHT30;69442;51.442;10.564;2024-02-28T05:02:51;3.93;73.82
80132;SHT30;69442;51.442;10.564;2024-02-28T05:05:17;3.98;74.14
80132;SHT30;69442;51.442;10.564;2024-02-28T05:07:43;4.00;73.73
80132;SHT30;69442;51.442;10.564;2024-02-28T05:10:08;3.96;73.65
80132;SHT30;69442;51.442;10.564;2024-02-28T05:12:34;3.94;73.72
80132;SHT30;69442;51.442;10.564;2024-02-28T05:15:00;3.94;73.58
80132;SHT30;69442;51.442;10.564;2024-02-28T05:17:25;3.90;73.59
80132;SHT30;69442;51.442;10.564;2024-02-28T05:19:50;3.89;73.57
80132;SHT30;69442;51.442;10.564;2024-02-28T05:22:16;3.86;73.77
80132;SHT30;69442;51.442;10.564;2024-02-28T05:24:41;3.89;73.78
80132;SHT30;69442;51.442;10.564;2024-02-28T05:27:09;3.94;74.03
80132;SHT30;69442;51.442;10.564;2024-02-28T05:29:34;3.85;73.67
80132;SHT30;69442;51.442;10.564;2024-02-28T05:32:00;3.86;73.82
80132;SHT30;69442;51.442;10.564;2024-02-28T05:34:25;3.85;73.88
80132;SHT30;69442;51.442;10.564;2024-02-28T05:36:50;3.82;73.98
80132;SHT30;69442;51.442;10.564;2024-02-28T05:39:16;3.80;73.89
80132;SHT30;69442;51.442;10.564;2024-02-28T05:41:41;3.79;74.12
80132;SHT30;69442;51.442;10.564;2024-02-28T05:44:06;3.78;73.88
80132;SHT30;69442;51.442;10.564;2024-02-28T05:46:32;3.83;74.46
80132;SHT30;69442;51.442;10.564;2024-02-28T05:48:57;3.87;74.32
80132;SHT30;69442;51.442;10.564;2024-02-28T05:51:23;3.87;73.63
80132;SHT30;69442;51.442;10.564;2024-02-28T05:53:49;3.80;73.42
80132;SHT30;69442;51.442;10.564;2024-02-28T05:56:14;3.80;73.51
80132;SHT30;69442;51.442;10.564;2024-02-28T05:58:44;3.82;73.95
80132;SHT30;69442;51.442;10.564;2024-02-28T06:01:10;3.80;73.78
80132;SHT30;69442;51.442;10.564;2024-02-28T06:03:38;3.89;74.54
80132;SHT30;69442;51.442;10.564;2024-02-28T06:06:04;3.83;73.34
80132;SHT30;69442;51.442;10.564;2024-02-28T06:08:34;3.87;73.73
80132;SHT30;69442;51.442;10.564;2024-02-28T06:10:59;3.80;73.01
80132;SHT30;69442;51.442;10.564;2024-02-28T06:13:26;3.76;73.35
80132;SHT30;69442;51.442;10.564;2024-02-28T06:15:52;3.78;73.78
80132;SHT30;69442;51.442;10.564;2024-02-28T06:18:17;3.76;73.58
80132;SHT30;69442;51.442;10.564;2024-02-28T06:20:42;3.79;73.71
80132;SHT30;69442;51.442;10.564;2024-02-28T06:23:08;3.78;73.50
80132;SHT30;69442;51.442;10.564;2024-02-28T06:25:33;3.79;73.78
80132;SHT30;69442;51.442;10.564;2024-02-28T06:27:59;3.78;74.02
80132;SHT30;69442;51.442;10.564;2024-02-28T06:30:25;3.80;73.83
80132;SHT30;69442;51.442;10.564;2024-02-28T06:32:51;3.72;73.06
80132;SHT30;69442;51.442;10.564;2024-02-28T06:35:17;3.69;73.39
80132;SHT30;69442;51.442;10.564;2024-02-28T06:37:43;3.63;73.62
80132;SHT30;69442;51.442;10.564;2024-02-28T06:40:15;3.65;73.79
80132;SHT30;69442;51.442;10.564;2024-02-28T06:42:40;3.62;73.95
80132;SHT30;69442;51.442;10.564;2024-02-28T06:45:06;3.62;73.94
80132;SHT30;69442;51.442;10.564;2024-02-28T06:47:32;3.63;73.89
80132;SHT30;69442;51.442;10.564;2024-02-28T06:49:58;3.61;73.56
80132;SHT30;69442;51.442;10.564;2024-02-28T06:52:23;3.58;73.77
80132;SHT30;69442;51.442;10.564;2024-02-28T06:54:49;3.61;73.95
80132;SHT30;69442;51.442;10.564;2024-02-28T06:57:14;3.59;74.02
80132;SHT30;69442;51.442;10.564;2024-02-28T06:59:39;3.58;73.92
80132;SHT30;69442;51.442;10.564;2024-02-28T07:02:05;3.59;74.11
80132;SHT30;69442;51.442;10.564;2024-02-28T07:04:30;3.59;74.08
80132;SHT30;69442;51.442;10.564;2024-02-28T07:06:55;3.62;74.19
80132;SHT30;69442;51.442;10.564;2024-02-28T07:09:21;3.69;74.69
80132;SHT30;69442;51.442;10.564;2024-02-28T07:11:46;3.75;74.24
80132;SHT30;69442;51.442;10.564;2024-02-28T07:14:12;3.82;80.37
80132;SHT30;69442;51.442;10.564;2024-02-28T07:16:37;3.85;83.28
80132;SHT30;69442;51.442;10.564;2024-02-28T07:19:03;3.98;86.85
80132;SHT30;69442;51.442;10.564;2024-02-28T07:21:28;3.91;80.89
80132;SHT30;69442;51.442;10.564;2024-02-28T07:23:55;3.89;79.20
80132;SHT30;69442;51.442;10.564;2024-02-28T07:26:21;3.89;77.79
80132;SHT30;69442;51.442;10.564;2024-02-28T07:28:46;3.90;76.66
80132;SHT30;69442;51.442;10.564;2024-02-28T07:31:18;3.86;75.41
80132;SHT30;69442;51.442;10.564;2024-02-28T07:33:44;3.86;75.21
80132;SHT30;69442;51.442;10.564;2024-02-28T07:36:09;3.86;74.70
80132;SHT30;69442;51.442;10.564;2024-02-28T07:38:35;3.85;74.78
80132;SHT30;69442;51.442;10.564;2024-02-28T07:41:00;3.91;74.94
80132;SHT30;69442;51.442;10.564;2024-02-28T07:43:26;3.91;74.14
80132;SHT30;69442;51.442;10.564;2024-02-28T07:45:52;3.91;73.84
80132;SHT30;69442;51.442;10.564;2024-02-28T07:48:17;3.97;73.68
80132;SHT30;69442;51.442;10.564;2024-02-28T07:50:45;3.98;73.45
80132;SHT30;69442;51.442;10.564;2024-02-28T07:53:12;3.97;73.76
80132;SHT30;69442;51.442;10.564;2024-02-28T07:55:38;3.94;73.45
80132;SHT30;69442;51.442;10.564;2024-02-28T07:58:04;3.93;73.08
80132;SHT30;69442;51.442;10.564;2024-02-28T08:00:30;3.90;73.41
80132;SHT30;69442;51.442;10.564;2024-02-28T08:02:58;3.94;73.76
80132;SHT30;69442;51.442;10.564;2024-02-28T08:05:23;3.90;73.15
80132;SHT30;69442;51.442;10.564;2024-02-28T08:07:49;3.91;73.09
80132;SHT30;69442;51.442;10.564;2024-02-28T08:10:14;3.90;73.36
80132;SHT30;69442;51.442;10.564;2024-02-28T08:12:40;3.87;73.42
80132;SHT30;69442;51.442;10.564;2024-02-28T08:15:05;3.91;73.50
80132;SHT30;69442;51.442;10.564;2024-02-28T08:17:31;3.96;73.78
80132;SHT30;69442;51.442;10.564;2024-02-28T08:19:56;3.96;73.10
80132;SHT30;69442;51.442;10.564;2024-02-28T08:22:22;3.98;73.29
80132;SHT30;69442;51.442;10.564;2024-02-28T08:24:51;3.94;73.39
80132;SHT30;69442;51.442;10.564;2024-02-28T08:27:17;3.97;73.60
80132;SHT30;69442;51.442;10.564;2024-02-28T08:29:42;4.00;73.85
80132;SHT30;69442;51.442;10.564;2024-02-28T08:32:10;4.00;73.98
80132;SHT30;69442;51.442;10.564;2024-02-28T08:34:36;4.04;74.22
80132;SHT30;69442;51.442;10.564;2024-02-28T08:37:01;4.08;73.77
80132;SHT30;69442;51.442;10.564;2024-02-28T08:39:27;4.13;73.78
80132;SHT30;69442;51.442;10.564;2024-02-28T08:41:52;4.14;73.99
80132;SHT30;69442;51.442;10.564;2024-02-28T08:44:18;4.10;73.77
80132;SHT30;69442;51.442;10.564;2024-02-28T08:46:46;4.18;74.19
80132;SHT30;69442;51.442;10.564;2024-02-28T08:49:13;4.22;74.58
80132;SHT30;69442;51.442;10.564;2024-02-28T08:51:39;4.27;74.17
80132;SHT30;69442;51.442;10.564;2024-02-28T08:54:05;4.32;73.91
80132;SHT30;69442;51.442;10.564;2024-02-28T08:56:31;4.37;73.32
80132;SHT30;69442;51.442;10.564;2024-02-28T08:58:56;4.38;73.45
80132;SHT30;69442;51.442;10.564;2024-02-28T09:01:21;4.44;73.56
80132;SHT30;69442;51.442;10.564;2024-02-28T09:03:47;4.48;73.30
80132;SHT30;69442;51.442;10.564;2024-02-28T09:06:12;4.49;73.38
80132;SHT30;69442;51.442;10.564;2024-02-28T09:08:37;4.51;73.85
80132;SHT30;69442;51.442;10.564;2024-02-28T09:11:03;4.58;73.35
80132;SHT30;69442;51.442;10.564;2024-02-28T09:13:30;4.62;73.68
80132;SHT30;69442;51.442;10.564;2024-02-28T09:15:56;4.69;73.62
80132;SHT30;69442;51.442;10.564;2024-02-28T09:18:21;4.73;73.24
80132;SHT30;69442;51.442;10.564;2024-02-28T09:20:47;4.79;73.72
80132;SHT30;69442;51.442;10.564;2024-02-28T09:23:13;4.83;73.63
80132;SHT30;69442;51.442;10.564;2024-02-28T09:25:39;4.90;74.34
80132;SHT30;69442;51.442;10.564;2024-02-28T09:28:05;4.93;74.28
80132;SHT30;69442;51.442;10.564;2024-02-28T09:30:30;4.98;74.13
80132;SHT30;69442;51.442;10.564;2024-02-28T09:32:56;5.04;72.85
80132;SHT30;69442;51.442;10.564;2024-02-28T09:35:22;5.00;72.41
80132;SHT30;69442;51.442;10.564;2024-02-28T09:37:47;5.07;72.99
80132;SHT30;69442;51.442;10.564;2024-02-28T09:40:13;5.14;73.10
80132;SHT30;69442;51.442;10.564;2024-02-28T09:42:38;5.12;72.20
80132;SHT30;69442;51.442;10.564;2024-02-28T09:45:04;5.18;72.92
80132;SHT30;69442;51.442;10.564;2024-02-28T09:47:33;5.27;72.28
80132;SHT30;69442;51.442;10.564;2024-02-28T09:50:00;5.35;72.23
80132;SHT30;69442;51.442;10.564;2024-02-28T09:52:26;5.42;73.50
80132;SHT30;69442;51.442;10.564;2024-02-28T09:54:55;5.43;71.78
80132;SHT30;69442;51.442;10.564;2024-02-28T09:57:21;5.49;71.74
80132;SHT30;69442;51.442;10.564;2024-02-28T09:59:55;5.48;70.53
80132;SHT30;69442;51.442;10.564;2024-02-28T10:02:21;5.52;71.51
80132;SHT30;69442;51.442;10.564;2024-02-28T10:04:47;5.55;70.36
80132;SHT30;69442;51.442;10.564;2024-02-28T10:07:13;5.60;72.53
80132;SHT30;69442;51.442;10.564;2024-02-28T10:09:39;5.70;72.20
80132;SHT30;69442;51.442;10.564;2024-02-28T10:12:04;5.70;73.39
80132;SHT30;69442;51.442;10.564;2024-02-28T10:14:30;5.81;72.54
80132;SHT30;69442;51.442;10.564;2024-02-28T10:16:55;5.87;72.64
80132;SHT30;69442;51.442;10.564;2024-02-28T10:19:21;5.93;73.89
80132;SHT30;69442;51.442;10.564;2024-02-28T10:21:47;5.97;72.96
80132;SHT30;69442;51.442;10.564;2024-02-28T10:24:12;6.04;71.55
80132;SHT30;69442;51.442;10.564;2024-02-28T10:26:47;6.10;73.50
80132;SHT30;69442;51.442;10.564;2024-02-28T10:29:25;6.17;71.98
80132;SHT30;69442;51.442;10.564;2024-02-28T10:31:51;6.22;72.11
80132;SHT30;69442;51.442;10.564;2024-02-28T10:34:17;6.28;72.36
80132;SHT30;69442;51.442;10.564;2024-02-28T10:36:44;6.33;72.79
80132;SHT30;69442;51.442;10.564;2024-02-28T10:39:11;6.38;73.37
80132;SHT30;69442;51.442;10.564;2024-02-28T10:41:38;6.43;71.56
80132;SHT30;69442;51.442;10.564;2024-02-28T10:44:03;6.46;72.38
80132;SHT30;69442;51.442;10.564;2024-02-28T10:46:30;6.50;73.19
80132;SHT30;69442;51.442;10.564;2024-02-28T10:48:56;6.56;72.97
80132;SHT30;69442;51.442;10.564;2024-02-28T10:51:25;6.63;72.07
80132;SHT30;69442;51.442;10.564;2024-02-28T10:54:06;6.69;72.14
80132;SHT30;69442;51.442;10.564;2024-02-28T10:56:32;6.72;73.27
80132;SHT30;69442;51.442;10.564;2024-02-28T10:58:59;6.79;70.60
80132;SHT30;69442;51.442;10.564;2024-02-28T11:01:25;6.85;71.50
80132;SHT30;69442;51.442;10.564;2024-02-28T11:03:51;6.91;71.59
80132;SHT30;69442;51.442;10.564;2024-02-28T11:06:21;6.92;72.85
80132;SHT30;69442;51.442;10.564;2024-02-28T11:08:48;6.98;70.26
80132;SHT30;69442;51.442;10.564;2024-02-28T11:11:14;7.05;70.26
80132;SHT30;69442;51.442;10.564;2024-02-28T11:13:53;7.08;72.26
80132;SHT30;69442;51.442;10.564;2024-02-28T11:16:30;7.12;70.01
80132;SHT30;69442;51.442;10.564;2024-02-28T11:18:56;7.15;71.73
80132;SHT30;69442;51.442;10.564;2024-02-28T11:21:29;7.20;71.43
80132;SHT30;69442;51.442;10.564;2024-02-28T11:23:58;7.25;69.71
80132;SHT30;69442;51.442;10.564;2024-02-28T11:26:24;7.27;72.37
80132;SHT30;69442;51.442;10.564;2024-02-28T11:28:50;7.32;69.85
80132;SHT30;69442;51.442;10.564;2024-02-28T11:31:16;7.33;68.84
80132;SHT30;69442;51.442;10.564;2024-02-28T11:33:41;7.39;71.21
80132;SHT30;69442;51.442;10.564;2024-02-28T11:36:11;7.42;68.99
80132;SHT30;69442;51.442;10.564;2024-02-28T11:38:38;7.44;71.35
80132;SHT30;69442;51.442;10.564;2024-02-28T11:41:03;7.50;67.77
80132;SHT30;69442;51.442;10.564;2024-02-28T11:43:31;7.53;68.35
80132;SHT30;69442;51.442;10.564;2024-02-28T11:45:58;7.56;70.41
80132;SHT30;69442;51.442;10.564;2024-02-28T11:48:25;7.57;69.58
80132;SHT30;69442;51.442;10.564;2024-02-28T11:50:53;7.60;70.33
80132;SHT30;69442;51.442;10.564;2024-02-28T11:53:18;7.64;71.37
80132;SHT30;69442;51.442;10.564;2024-02-28T11:55:45;7.66;71.82
80132;SHT30;69442;51.442;10.564;2024-02-28T11:58:13;7.71;69.47
80132;SHT30;69442;51.442;10.564;2024-02-28T12:00:50;7.74;71.01
80132;SHT30;69442;51.442;10.564;2024-02-28T12:03:25;7.80;67.51
80132;SHT30;69442;51.442;10.564;2024-02-28T12:05:52;7.81;69.11
80132;SHT30;69442;51.442;10.564;2024-02-28T12:08:18;7.85;71.30
80132;SHT30;69442;51.442;10.564;2024-02-28T12:10:47;7.84;70.50
80132;SHT30;69442;51.442;10.564;2024-02-28T12:13:17;7.88;71.05
80132;SHT30;69442;51.442;10.564;2024-02-28T12:15:43;7.91;68.67
80132;SHT30;69442;51.442;10.564;2024-02-28T12:18:08;7.97;67.19
80132;SHT30;69442;51.442;10.564;2024-02-28T12:20:35;7.97;68.33
80132;SHT30;69442;51.442;10.564;2024-02-28T12:23:02;8.01;69.63
80132;SHT30;69442;51.442;10.564;2024-02-28T12:25:28;8.05;69.28
80132;SHT30;69442;51.442;10.564;2024-02-28T12:27:54;8.08;69.05
80132;SHT30;69442;51.442;10.564;2024-02-28T12:30:19;8.10;67.44
80132;SHT30;69442;51.442;10.564;2024-02-28T12:32:46;8.09;67.23
80132;SHT30;69442;51.442;10.564;2024-02-28T12:35:11;8.10;66.85
80132;SHT30;69442;51.442;10.564;2024-02-28T12:37:37;8.13;65.50
80132;SHT30;69442;51.442;10.564;2024-02-28T12:40:04;8.19;67.82
80132;SHT30;69442;51.442;10.564;2024-02-28T12:42:31;8.23;69.51
80132;SHT30;69442;51.442;10.564;2024-02-28T12:44:57;8.28;67.76
80132;SHT30;69442;51.442;10.564;2024-02-28T12:47:22;8.30;69.03
80132;SHT30;69442;51.442;10.564;2024-02-28T12:49:47;8.36;70.10
80132;SHT30;69442;51.442;10.564;2024-02-28T12:52:13;8.39;69.54
80132;SHT30;69442;51.442;10.564;2024-02-28T12:54:39;8.42;66.91
80132;SHT30;69442;51.442;10.564;2024-02-28T12:57:04;8.46;69.26
80132;SHT30;69442;51.442;10.564;2024-02-28T12:59:31;8.49;68.88
80132;SHT30;69442;51.442;10.564;2024-02-28T13:01:58;8.50;70.46
80132;SHT30;69442;51.442;10.564;2024-02-28T13:04:23;8.54;71.22
80132;SHT30;69442;51.442;10.564;2024-02-28T13:06:50;8.59;68.76
80132;SHT30;69442;51.442;10.564;2024-02-28T13:09:17;8.59;68.03
80132;SHT30;69442;51.442;10.564;2024-02-28T13:11:43;8.64;69.41
80132;SHT30;69442;51.442;10.564;2024-02-28T13:14:09;8.67;68.11
80132;SHT30;69442;51.442;10.564;2024-02-28T13:16:35;8.67;66.17
80132;SHT30;69442;51.442;10.564;2024-02-28T13:19:01;8.65;64.95
80132;SHT30;69442;51.442;10.564;2024-02-28T13:21:26;8.68;67.50
80132;SHT30;69442;51.442;10.564;2024-02-28T13:23:52;8.67;63.34
80132;SHT30;69442;51.442;10.564;2024-02-28T13:26:17;8.65;63.45
80132;SHT30;69442;51.442;10.564;2024-02-28T13:28:46;8.70;65.15
80132;SHT30;69442;51.442;10.564;2024-02-28T13:31:11;8.68;64.78
80132;SHT30;69442;51.442;10.564;2024-02-28T13:33:36;8.72;66.75
80132;SHT30;69442;51.442;10.564;2024-02-28T13:36:03;8.77;65.25
80132;SHT30;69442;51.442;10.564;2024-02-28T13:38:28;8.81;64.57
80132;SHT30;69442;51.442;10.564;2024-02-28T13:40:54;8.79;63.18
80132;SHT30;69442;51.442;10.564;2024-02-28T13:43:19;8.85;64.92
80132;SHT30;69442;51.442;10.564;2024-02-28T13:45:49;8.78;63.08
80132;SHT30;69442;51.442;10.564;2024-02-28T13:48:21;8.84;64.38
80132;SHT30;69442;51.442;10.564;2024-02-28T13:50:48;8.85;63.02
80132;SHT30;69442;51.442;10.564;2024-02-28T13:53:14;8.84;62.05
80132;SHT30;69442;51.442;10.564;2024-02-28T13:55:41;8.85;63.22
80132;SHT30;69442;51.442;10.564;2024-02-28T13:58:08;8.88;65.80
80132;SHT30;69442;51.442;10.564;2024-02-28T14:00:34;8.92;63.27
80132;SHT30;69442;51.442;10.564;2024-02-28T14:03:01;8.92;61.02
80132;SHT30;69442;51.442;10.564;2024-02-28T14:05:27;8.91;60.69
80132;SHT30;69442;51.442;10.564;2024-02-28T14:07:53;8.91;61.98
80132;SHT30;69442;51.442;10.564;2024-02-28T14:10:18;8.96;62.50
80132;SHT30;69442;51.442;10.564;2024-02-28T14:12:43;8.93;62.05
80132;SHT30;69442;51.442;10.564;2024-02-28T14:15:09;8.95;60.40
80132;SHT30;69442;51.442;10.564;2024-02-28T14:17:36;8.99;61.90
80132;SHT30;69442;51.442;10.564;2024-02-28T14:20:01;8.98;61.85
80132;SHT30;69442;51.442;10.564;2024-02-28T14:22:27;8.99;61.30
80132;SHT30;69442;51.442;10.564;2024-02-28T14:24:52;9.01;63.36
80132;SHT30;69442;51.442;10.564;2024-02-28T14:27:18;9.02;61.19
80132;SHT30;69442;51.442;10.564;2024-02-28T14:29:45;9.02;59.63
80132;SHT30;69442;51.442;10.564;2024-02-28T14:32:11;9.02;60.21
80132;SHT30;69442;51.442;10.564;2024-02-28T14:34:36;8.99;60.36
80132;SHT30;69442;51.442;10.564;2024-02-28T14:37:01;8.96;60.29
80132;SHT30;69442;51.442;10.564;2024-02-28T14:39:28;8.96;59.83
80132;SHT30;69442;51.442;10.564;2024-02-28T14:41:54;8.95;58.48
80132;SHT30;69442;51.442;10.564;2024-02-28T14:44:19;8.85;58.81
80132;SHT30;69442;51.442;10.564;2024-02-28T14:46:45;8.84;58.56
80132;SHT30;69442;51.442;10.564;2024-02-28T14:49:10;8.85;58.68
80132;SHT30;69442;51.442;10.564;2024-02-28T14:51:36;8.82;57.83
80132;SHT30;69442;51.442;10.564;2024-02-28T14:54:01;8.82;58.87
80132;SHT30;69442;51.442;10.564;2024-02-28T14:56:27;8.79;58.34
80132;SHT30;69442;51.442;10.564;2024-02-28T14:58:55;8.77;57.57
80132;SHT30;69442;51.442;10.564;2024-02-28T15:01:22;8.77;59.28
80132;SHT30;69442;51.442;10.564;2024-02-28T15:03:49;8.74;58.68
80132;SHT30;69442;51.442;10.564;2024-02-28T15:06:16;8.75;61.76
80132;SHT30;69442;51.442;10.564;2024-02-28T15:08:42;8.77;59.25
80132;SHT30;69442;51.442;10.564;2024-02-28T15:11:08;8.77;59.64
80132;SHT30;69442;51.442;10.564;2024-02-28T15:13:33;8.74;61.56
80132;SHT30;69442;51.442;10.564;2024-02-28T15:15:59;8.77;61.99
80132;SHT30;69442;51.442;10.564;2024-02-28T15:18:24;8.78;61.48
80132;SHT30;69442;51.442;10.564;2024-02-28T15:20:51;8.78;60.53
80132;SHT30;69442;51.442;10.564;2024-02-28T15:23:19;8.75;60.58